To NAV CANADA Home Page Login to a new session Search on AWWS site Feedback and Comments Disclaimer Vers la page française équivalente Tips FAQ What's new on the site To the Forecasts and Observations / NOTAM section To "File a Flight Plan" website Publications and other links Update of the User's profile FIC Telephone Numbers My Weather Data Folder Route Weather Data Regional Weather Data Local Weather Data To the Forecasts and Observations / NOTAM section
Request Generated 06/26/2017 at 22:36:25 UTC . Weather information available at that time is displayed.

METAR/TAF

ST. JOHN'S/ST. JOHN'S INTL/NL    

METAR CYYT 262200Z 25018G24KT 15SM FEW040TCU SCT220 21/11 A2984 RMK
TCU1CI2 SLP106 DENSITY ALT 1400FT=
METAR CYYT 262100Z CCA 24016G23KT 15SM FEW220 23/11 A2983 RMK CI1
SLP103 DENSITY ALT 1600FT=
METAR CYYT 262100Z 24016G23KT 15SM FEW220 23/11 A2983 RMK CI1 SLP103
DENSITY ALT 1600FT=
METAR CYYT 262000Z 24017G24KT 15SM FEW050 FEW220 24/10 A2983 RMK
SC1CI1 SLP102 DENSITY ALT 1800FT=

TAF CYYT 261740Z 2618/2718 25015G25KT P6SM FEW040
BECMG 2700/2702 22012KT
FM270600 24008KT P6SM SKC PROB30 2706/2709 1/2SM FG VV002
FM271200 26012KT P6SM SCT080
BECMG 2716/2718 27008KT
RMK NXT FCST BY 270000Z=
Your time UTC time
Weather data provided by Environment Canada and NAV CANADA